TimeAST,TemperatureF,Dew PointF,Humidity,Sea Level PressureIn,VisibilityMPH,Wind Direction,Wind SpeedMPH,Gust SpeedMPH,PrecipitationIn,Events,Conditions,WindDirDegrees,DateUTC
12:00 AM,77.0,69.8,78,29.95,6.2,ESE,11.5,-,N/A,,Scattered Clouds,110,2013-02-06 04:00:00
1:00 AM,77.0,69.8,78,29.92,6.2,ESE,9.2,-,N/A,,Scattered Clouds,120,2013-02-06 05:00:00
2:00 AM,75,69,77,29.93,31,SE,5.8,,,,Scattered Clouds,130,2013-02-06 06:00:00
2:00 AM,75.2,69.8,83,29.92,6.2,SE,5.8,-,N/A,,Partly Cloudy,130,2013-02-06 06:00:00
3:00 AM,75.2,68.0,78,29.92,6.2,SE,6.9,-,N/A,,Partly Cloudy,130,2013-02-06 07:00:00
4:00 AM,75.2,68.0,78,29.89,6.2,ESE,6.9,-,N/A,,Partly Cloudy,120,2013-02-06 08:00:00
5:00 AM,75,69,75,29.90,31,ESE,6.9,,,,Scattered Clouds,120,2013-02-06 09:00:00
5:00 AM,75.2,68.0,78,29.89,6.2,ESE,6.9,-,N/A,,Partly Cloudy,120,2013-02-06 09:00:00
6:00 AM,75.2,68.0,78,29.89,6.2,ESE,5.8,-,N/A,,Partly Cloudy,120,2013-02-06 10:00:00
7:00 AM,75.2,68.0,78,29.92,6.2,ESE,8.1,-,N/A,,Partly Cloudy,120,2013-02-06 11:00:00
8:00 AM,80,69,61,29.95,31,ESE,9.2,,,,Scattered Clouds,120,2013-02-06 12:00:00
8:00 AM,80.6,68.0,65,29.95,6.2,ESE,9.2,-,N/A,,Partly Cloudy,120,2013-02-06 12:00:00
9:00 AM,80.6,69.8,70,29.98,6.2,East,11.5,-,N/A,,Partly Cloudy,100,2013-02-06 13:00:00
10:00 AM,84.2,69.8,62,29.98,6.2,East,11.5,-,N/A,,Scattered Clouds,100,2013-02-06 14:00:00
11:00 AM,85,71,54,29.99,37,East,10.4,,,,Partly Cloudy,90,2013-02-06 15:00:00
11:00 AM,84.2,69.8,62,29.98,6.2,East,11.5,-,N/A,,Scattered Clouds,90,2013-02-06 15:00:00
12:00 PM,86.0,69.8,58,29.95,6.2,East,11.5,-,N/A,,Scattered Clouds,90,2013-02-06 16:00:00
1:00 PM,86.0,69.8,58,29.92,6.2,East,10.4,-,N/A,,Scattered Clouds,90,2013-02-06 17:00:00
2:00 PM,86.0,69.8,58,29.92,6.2,East,11.5,-,N/A,,Scattered Clouds,90,2013-02-06 18:00:00
3:00 PM,86.0,71.6,62,29.89,6.2,East,10.4,-,N/A,,Scattered Clouds,80,2013-02-06 19:00:00
4:00 PM,82.4,71.6,70,29.89,6.2,East,10.4,-,N/A,,Partly Cloudy,90,2013-02-06 20:00:00
5:00 PM,82.4,71.6,70,29.89,6.2,East,9.2,-,N/A,,Partly Cloudy,90,2013-02-06 21:00:00
6:00 PM,80.6,71.6,74,29.89,6.2,East,9.2,-,N/A,,Partly Cloudy,80,2013-02-06 22:00:00
7:00 PM,78.8,71.6,78,29.89,6.2,ENE,10.4,-,N/A,,Partly Cloudy,70,2013-02-06 23:00:00
8:00 PM,78.8,71.6,78,29.89,6.2,East,11.5,-,N/A,,Partly Cloudy,80,2013-02-07 00:00:00
9:00 PM,78.8,71.6,78,29.92,6.2,East,11.5,-,N/A,,Partly Cloudy,80,2013-02-07 01:00:00
10:00 PM,78.8,71.6,78,29.92,6.2,ENE,12.7,-,N/A,,Partly Cloudy,70,2013-02-07 02:00:00
11:00 PM,79,72,75,29.95,37,East,11.5,,,,Partly Cloudy,90,2013-02-07 03:00:00
11:00 PM,78.8,71.6,78,29.95,6.2,East,11.5,-,N/A,,Scattered Clouds,90,2013-02-07 03:00:00